createdAt,value
2023-04-15T00:01:01.189Z,14.88
2023-04-15T00:03:30.172Z,14.13
2023-04-15T00:05:58.354Z,18.10
2023-04-15T00:08:25.743Z,19.17
2023-04-15T00:10:52.785Z,24.30
2023-04-15T00:13:20.458Z,18.60
2023-04-15T00:15:48.274Z,19.02
2023-04-15T00:18:14.866Z,19.55
2023-04-15T00:20:42.510Z,14.43
2023-04-15T00:23:09.311Z,16.70
2023-04-15T00:25:36.626Z,22.67
2023-04-15T00:28:03.812Z,16.48
2023-04-15T00:30:31.724Z,16.65
2023-04-15T00:32:58.417Z,13.60
2023-04-15T00:35:25.864Z,18.88
2023-04-15T00:37:52.533Z,15.45
2023-04-15T00:40:21.889Z,20.25
2023-04-15T00:42:49.739Z,16.60
2023-04-15T00:45:17.227Z,15.27
2023-04-15T00:47:44.399Z,13.75
2023-04-15T00:50:12.905Z,15.18
2023-04-15T00:52:40.515Z,11.88
2023-04-15T00:55:08.893Z,16.73
2023-04-15T00:57:36.112Z,15.85
2023-04-15T01:00:04.923Z,20.27
2023-04-15T01:02:32.696Z,13.80
2023-04-15T01:05:02.674Z,16.75
2023-04-15T01:07:29.325Z,17.80
2023-04-15T01:09:57.058Z,18.58
2023-04-15T01:12:26.107Z,14.27
2023-04-15T01:14:55.521Z,18.05
2023-04-15T01:17:22.886Z,13.40
2023-04-15T01:19:50.352Z,20.65
2023-04-15T01:22:17.563Z,20.58
2023-04-15T01:24:56.057Z,16.50
2023-04-15T01:27:23.165Z,17.80
2023-04-15T01:29:50.111Z,16.98
2023-04-15T01:32:17.377Z,19.83
2023-04-15T01:34:44.326Z,20.25
2023-04-15T01:37:12.080Z,20.52
2023-04-15T01:39:39.365Z,19.33
2023-04-15T01:42:07.129Z,17.85
2023-04-15T01:44:33.812Z,20.13
2023-04-15T01:47:01.165Z,19.30
2023-04-15T01:49:27.851Z,19.35
2023-04-15T01:51:55.264Z,16.75
2023-04-15T01:54:22.473Z,24.50
2023-04-15T01:56:51.500Z,23.55
2023-04-15T01:59:18.648Z,20.27
2023-04-15T02:01:46.813Z,22.63
2023-04-15T02:04:16.557Z,19.70
2023-04-15T02:06:44.474Z,21.23
2023-04-15T02:09:12.193Z,17.95
2023-04-15T02:11:39.686Z,19.80
2023-04-15T02:14:06.344Z,18.33
2023-04-15T02:16:34.275Z,18.38
2023-04-15T02:19:02.050Z,21.10
2023-04-15T02:21:30.912Z,19.98
2023-04-15T02:23:57.530Z,21.67
2023-04-15T02:26:25.867Z,22.33
2023-04-15T02:28:54.714Z,20.63
2023-04-15T02:31:22.007Z,21.27
2023-04-15T02:33:48.664Z,20.52
2023-04-15T02:36:15.898Z,20.38
2023-04-15T02:38:43.554Z,20.60
2023-04-15T02:41:11.592Z,25.90
2023-04-15T02:43:39.866Z,32.83
2023-04-15T02:46:08.719Z,27.17
2023-04-15T02:48:35.900Z,21.30
2023-04-15T02:51:14.957Z,22.73
2023-04-15T02:53:41.640Z,18.67
2023-04-15T02:56:09.173Z,20.25
2023-04-15T02:58:36.480Z,26.60
2023-04-15T03:01:03.917Z,24.00
2023-04-15T03:03:30.695Z,28.65
2023-04-15T03:05:58.276Z,21.30
2023-04-15T03:08:25.060Z,23.40
2023-04-15T03:10:53.786Z,23.90
2023-04-15T03:13:21.566Z,24.02
2023-04-15T03:15:48.751Z,23.63
2023-04-15T03:18:16.195Z,27.48
2023-04-15T03:20:43.024Z,27.33
2023-04-15T03:23:10.708Z,29.77
2023-04-15T03:25:37.570Z,36.28
2023-04-15T03:28:06.968Z,32.17
2023-04-15T03:30:33.656Z,30.35
2023-04-15T03:33:01.250Z,30.48
2023-04-15T03:35:28.306Z,30.98
2023-04-15T03:37:54.919Z,38.53
2023-04-15T03:40:22.614Z,36.38
2023-04-15T03:42:49.317Z,30.45
2023-04-15T03:45:16.741Z,30.13
2023-04-15T03:47:43.379Z,36.33
2023-04-15T03:50:11.193Z,39.20
2023-04-15T03:52:37.915Z,32.13
2023-04-15T03:55:05.526Z,33.22
2023-04-15T03:57:32.157Z,28.08
2023-04-15T03:59:59.084Z,36.60
2023-04-15T04:02:26.579Z,42.70
2023-04-15T04:04:53.693Z,32.97
2023-04-15T04:07:23.497Z,31.10
2023-04-15T04:09:50.119Z,30.77
2023-04-15T04:12:17.378Z,28.80
2023-04-15T04:14:44.234Z,32.88
2023-04-15T04:17:11.902Z,27.10
2023-04-15T04:19:38.633Z,26.42
2023-04-15T04:22:05.944Z,31.52
2023-04-15T04:24:32.676Z,26.73
2023-04-15T04:27:00.044Z,27.77
2023-04-15T04:29:26.908Z,26.73
2023-04-15T04:31:54.232Z,34.00
2023-04-15T04:34:21.052Z,32.85
2023-04-15T04:36:48.313Z,28.23
2023-04-15T04:39:14.955Z,32.08
2023-04-15T04:41:42.290Z,42.67
2023-04-15T04:44:09.204Z,31.13
2023-04-15T04:46:36.113Z,33.95
2023-04-15T04:49:02.964Z,36.13
2023-04-15T04:51:31.200Z,35.10
2023-04-15T04:53:57.927Z,32.35
2023-04-15T04:56:25.198Z,33.15
2023-04-15T04:58:51.847Z,30.00
2023-04-15T05:01:19.258Z,33.13
2023-04-15T05:03:46.002Z,32.80
2023-04-15T05:06:13.282Z,32.28
2023-04-15T05:08:41.191Z,29.65
2023-04-15T05:11:09.211Z,29.85
2023-04-15T05:13:38.557Z,29.05
2023-04-15T05:16:06.576Z,28.73
2023-04-15T05:18:33.417Z,28.65
2023-04-15T05:21:00.833Z,26.42
2023-04-15T05:23:27.614Z,28.38
2023-04-15T05:25:54.907Z,25.40
2023-04-15T05:28:21.754Z,29.23
2023-04-15T05:30:49.015Z,29.50
2023-04-15T05:33:15.732Z,35.50
2023-04-15T05:35:42.985Z,35.13
2023-04-15T05:38:09.649Z,28.15
2023-04-15T05:40:37.530Z,23.73
2023-04-15T05:43:04.128Z,23.67
2023-04-15T05:45:31.384Z,23.92
2023-04-15T05:47:58.040Z,22.83
2023-04-15T05:50:25.340Z,25.48
2023-04-15T05:52:52.026Z,24.30
2023-04-15T05:55:19.413Z,21.75
2023-04-15T05:57:46.337Z,24.90
2023-04-15T06:00:14.654Z,22.13
2023-04-15T06:02:41.770Z,21.70
2023-04-15T06:05:10.149Z,27.65
2023-04-15T06:07:37.568Z,33.53
2023-04-15T06:10:06.162Z,22.83
2023-04-15T06:12:33.250Z,26.73
2023-04-15T06:15:00.610Z,29.10
2023-04-15T06:17:27.560Z,29.63
2023-04-15T06:19:57.879Z,21.17
2023-04-15T06:22:24.819Z,25.83
2023-04-15T06:24:51.897Z,23.05
2023-04-15T06:27:19.462Z,22.55
2023-04-15T06:29:46.194Z,26.95
2023-04-15T06:32:14.559Z,24.95
2023-04-15T06:34:41.589Z,28.02
2023-04-15T06:37:09.931Z,25.98
2023-04-15T06:39:37.093Z,27.20
2023-04-15T06:42:04.736Z,30.15
2023-04-15T06:44:33.242Z,36.25
2023-04-15T06:47:01.412Z,23.52
2023-04-15T06:49:27.998Z,29.65
2023-04-15T06:51:55.282Z,25.58
2023-04-15T06:54:22.389Z,26.23
2023-04-15T06:56:50.204Z,24.25
2023-04-15T06:59:16.804Z,21.40
2023-04-15T07:01:44.165Z,27.58
2023-04-15T07:04:11.234Z,27.95
2023-04-15T07:06:39.021Z,22.38
2023-04-15T07:09:05.908Z,24.38
2023-04-15T07:11:33.413Z,25.35
2023-04-15T07:14:00.218Z,24.10
2023-04-15T07:16:29.384Z,25.98
2023-04-15T07:18:57.063Z,26.38
2023-04-15T07:21:25.416Z,23.80
2023-04-15T07:23:52.324Z,22.83
2023-04-15T07:26:19.560Z,21.02
2023-04-15T07:28:47.237Z,29.42
2023-04-15T07:31:15.118Z,24.13
2023-04-15T07:33:41.947Z,28.20
2023-04-15T07:36:09.646Z,22.58
2023-04-15T07:38:36.282Z,27.83
2023-04-15T07:41:03.711Z,19.80
2023-04-15T07:43:30.364Z,20.25
2023-04-15T07:45:57.771Z,21.85
2023-04-15T07:48:24.452Z,24.67
2023-04-15T07:50:51.834Z,24.60
2023-04-15T07:53:18.470Z,22.98
2023-04-15T07:55:45.510Z,23.83
2023-04-15T07:58:12.218Z,27.67
2023-04-15T08:00:39.647Z,25.35
2023-04-15T08:03:06.641Z,30.13
2023-04-15T08:05:34.307Z,26.60
2023-04-15T08:08:01.309Z,24.55
2023-04-15T08:10:29.867Z,29.70
2023-04-15T08:12:57.459Z,24.13
2023-04-15T08:15:24.969Z,28.55
2023-04-15T08:17:51.666Z,18.98
2023-04-15T08:20:19.234Z,21.60
2023-04-15T08:22:47.717Z,20.63
2023-04-15T08:25:15.041Z,15.55
2023-04-15T08:27:41.803Z,15.57
2023-04-15T08:30:09.757Z,14.05
2023-04-15T08:32:36.466Z,15.70
2023-04-15T08:35:03.927Z,12.95
2023-04-15T08:37:30.526Z,12.02
2023-04-15T08:39:57.478Z,14.55
2023-04-15T08:42:31.268Z,14.40
2023-04-15T08:45:02.109Z,14.15
2023-04-15T08:47:31.702Z,16.25
2023-04-15T08:50:00.053Z,8.90
2023-04-15T08:52:27.193Z,8.70
2023-04-15T08:55:01.186Z,8.60
2023-04-15T08:57:31.994Z,7.60
2023-04-15T08:59:59.301Z,10.55
2023-04-15T09:02:27.473Z,8.30
2023-04-15T09:04:55.130Z,8.38
2023-04-15T09:07:21.828Z,10.77
2023-04-15T09:09:49.033Z,7.88
2023-04-15T09:12:17.099Z,7.60
2023-04-15T09:14:47.703Z,7.10
2023-04-15T09:17:19.563Z,4.55
2023-04-15T09:19:46.917Z,4.53
2023-04-15T09:22:14.287Z,5.45
2023-04-15T09:24:43.549Z,7.90
2023-04-15T09:27:11.004Z,8.45
2023-04-15T09:29:38.198Z,11.05
2023-04-15T09:32:12.491Z,8.43
2023-04-15T09:34:40.032Z,6.55
2023-04-15T09:37:07.787Z,5.68
2023-04-15T09:39:50.112Z,5.18
2023-04-15T09:42:26.801Z,8.10
2023-04-15T09:44:54.577Z,5.80
2023-04-15T09:47:32.322Z,8.98
2023-04-15T09:50:01.103Z,10.82
2023-04-15T09:52:28.505Z,4.78
2023-04-15T09:54:59.643Z,5.13
2023-04-15T09:57:34.554Z,5.57
2023-04-15T10:00:01.981Z,7.05
2023-04-15T10:02:30.062Z,7.05
2023-04-15T10:04:57.990Z,6.15
2023-04-15T10:07:25.569Z,7.15
2023-04-15T10:09:54.010Z,6.55
2023-04-15T10:12:21.924Z,6.93
2023-04-15T10:14:56.970Z,6.32
2023-04-15T10:17:25.851Z,7.18
2023-04-15T10:19:55.734Z,9.35
2023-04-15T10:22:28.121Z,6.82
2023-04-15T10:24:57.001Z,10.55
2023-04-15T10:27:24.435Z,6.10
2023-04-15T10:29:51.982Z,6.43
2023-04-15T10:32:21.231Z,6.50
2023-04-15T10:34:50.543Z,8.57
2023-04-15T10:37:35.833Z,7.55
2023-04-15T10:40:31.625Z,7.25
2023-04-15T10:43:02.960Z,5.57
2023-04-15T10:45:35.700Z,6.13
2023-04-15T10:48:04.510Z,8.20
2023-04-15T10:50:32.564Z,7.65
2023-04-15T10:53:02.553Z,7.38
2023-04-15T10:55:33.522Z,8.30
2023-04-15T10:58:02.353Z,7.32
2023-04-15T11:00:30.936Z,10.05
2023-04-15T11:03:07.595Z,6.45
2023-04-15T11:05:52.492Z,9.82
2023-04-15T11:08:20.303Z,6.72
2023-04-15T11:10:46.853Z,8.30
2023-04-15T11:13:22.066Z,9.23
2023-04-15T11:15:49.488Z,6.45
2023-04-15T11:18:21.098Z,6.88
2023-04-15T11:20:54.371Z,8.23
2023-04-15T11:23:46.954Z,9.05
2023-04-15T11:26:13.950Z,11.85
2023-04-15T11:28:43.443Z,12.27
2023-04-15T11:31:12.898Z,10.55
2023-04-15T11:34:00.158Z,9.07
2023-04-15T11:36:28.488Z,8.32
2023-04-15T11:38:57.573Z,9.55
2023-04-15T11:41:24.420Z,8.90
2023-04-15T11:43:52.800Z,7.85
2023-04-15T11:46:19.559Z,8.63
2023-04-15T11:48:47.696Z,9.00
2023-04-15T11:51:14.688Z,4.80
2023-04-15T11:53:48.103Z,7.28
2023-04-15T11:56:25.950Z,6.53
2023-04-15T11:58:58.708Z,7.13
2023-04-15T12:01:39.695Z,7.00
2023-04-15T12:04:15.873Z,8.00
2023-04-15T12:06:42.919Z,7.47
2023-04-15T12:09:14.645Z,6.72
2023-04-15T12:11:51.762Z,11.15
2023-04-15T12:14:24.961Z,10.18
2023-04-15T12:19:46.463Z,6.20
2023-04-15T12:22:15.408Z,7.85
2023-04-15T12:24:44.499Z,6.38
2023-04-15T12:27:12.502Z,7.80
2023-04-15T12:29:42.170Z,7.53
2023-04-15T12:32:11.040Z,7.38
2023-04-15T12:34:49.782Z,6.85
2023-04-15T12:37:16.806Z,5.18
2023-04-15T12:39:49.126Z,5.65
2023-04-15T12:42:17.261Z,5.87
2023-04-15T12:44:44.717Z,5.28
2023-04-15T12:47:12.159Z,5.63
2023-04-15T12:49:40.166Z,6.50
2023-04-15T12:52:07.058Z,5.97
2023-04-15T12:54:34.878Z,6.38
2023-04-15T12:57:05.936Z,5.60
2023-04-15T12:59:34.577Z,6.15
2023-04-15T13:02:02.649Z,6.35
2023-04-15T13:04:33.408Z,6.20
2023-04-15T13:07:01.360Z,6.68
2023-04-15T13:09:28.685Z,6.03
2023-04-15T13:11:56.323Z,7.53
2023-04-15T13:14:23.552Z,7.45
2023-04-15T13:16:50.407Z,6.35
2023-04-15T13:19:17.607Z,8.73
2023-04-15T13:21:44.250Z,10.93
2023-04-15T13:24:11.791Z,4.85
2023-04-15T13:26:38.461Z,5.38
2023-04-15T13:29:05.338Z,5.53
2023-04-15T13:31:32.033Z,7.72
2023-04-15T13:33:59.036Z,5.47
2023-04-15T13:36:26.449Z,8.05
2023-04-15T13:38:53.487Z,7.32
2023-04-15T13:41:21.049Z,6.57
2023-04-15T13:43:47.969Z,8.27
2023-04-15T13:46:14.926Z,8.00
2023-04-15T13:48:42.042Z,7.18
2023-04-15T13:51:08.745Z,10.32
2023-04-15T13:53:38.458Z,5.90
2023-04-15T13:56:09.925Z,10.80
2023-04-15T13:58:38.480Z,8.98
2023-04-15T14:01:06.951Z,6.63
2023-04-15T14:03:36.535Z,14.20
2023-04-15T14:06:04.314Z,7.28
2023-04-15T14:08:31.892Z,5.57
2023-04-15T14:10:58.574Z,5.95
2023-04-15T14:13:25.478Z,5.57
2023-04-15T14:15:52.845Z,8.50
2023-04-15T14:18:19.495Z,6.00
2023-04-15T14:20:47.039Z,11.90
2023-04-15T14:23:14.053Z,21.02
2023-04-15T14:25:40.796Z,23.13
2023-04-15T14:28:07.724Z,11.82
2023-04-15T14:30:35.276Z,18.48
2023-04-15T14:33:02.594Z,35.55
2023-04-15T14:35:29.528Z,7.18
2023-04-15T14:37:56.858Z,6.20
2023-04-15T14:40:24.234Z,11.38
2023-04-15T14:42:50.902Z,15.15
2023-04-15T14:45:18.577Z,4.40
2023-04-15T14:47:45.308Z,6.35
2023-04-15T14:50:12.655Z,6.63
2023-04-15T14:52:39.470Z,35.10
2023-04-15T14:55:08.402Z,5.43
2023-04-15T14:57:35.089Z,7.20
2023-04-15T15:00:03.723Z,6.13
2023-04-15T15:02:39.324Z,5.63
2023-04-15T15:05:08.592Z,11.52
2023-04-15T15:07:37.462Z,91.93
2023-04-15T15:10:05.083Z,14.45
2023-04-15T15:12:32.938Z,10.68
2023-04-15T15:15:01.582Z,6.57
2023-04-15T15:17:30.048Z,12.88
2023-04-15T15:19:57.986Z,6.72
2023-04-15T15:22:25.979Z,8.98
2023-04-15T15:24:53.764Z,9.02
2023-04-15T15:27:20.688Z,6.85
2023-04-15T15:29:49.176Z,4.60
2023-04-15T15:32:15.915Z,6.68
2023-04-15T15:34:43.047Z,8.75
2023-04-15T15:37:09.670Z,7.03
2023-04-15T15:39:36.629Z,7.75
2023-04-15T15:42:03.383Z,5.22
2023-04-15T15:44:31.508Z,5.43
2023-04-15T15:46:59.458Z,6.70
2023-04-15T15:49:28.299Z,5.07
2023-04-15T15:51:56.115Z,8.40
2023-04-15T15:54:24.642Z,16.42
2023-04-15T15:56:51.251Z,19.90
2023-04-15T15:59:18.491Z,10.60
2023-04-15T16:01:45.373Z,32.92
2023-04-15T16:04:12.932Z,4.32
2023-04-15T16:06:40.610Z,14.35
2023-04-15T16:09:07.542Z,5.68
2023-04-15T16:11:34.186Z,8.68
2023-04-15T16:14:01.169Z,6.70
2023-04-15T16:16:29.786Z,7.63
2023-04-15T16:19:00.190Z,5.05
2023-04-15T16:21:27.251Z,5.88
2023-04-15T16:23:54.257Z,7.72
2023-04-15T16:26:21.621Z,3.92
2023-04-15T16:28:48.976Z,9.95
2023-04-15T16:31:15.574Z,6.72
2023-04-15T16:33:42.879Z,11.10
2023-04-15T16:36:09.497Z,8.13
2023-04-15T16:38:36.450Z,20.20
2023-04-15T16:41:03.107Z,7.05
2023-04-15T16:43:30.134Z,15.25
2023-04-15T16:45:56.734Z,11.02
2023-04-15T16:48:24.087Z,8.60
2023-04-15T16:50:50.690Z,10.73
2023-04-15T16:53:18.072Z,11.65
2023-04-15T16:55:44.690Z,19.67
2023-04-15T16:58:12.119Z,10.30
2023-04-15T17:00:38.774Z,9.48
2023-04-15T17:03:06.327Z,12.75
2023-04-15T17:05:33.615Z,9.07
2023-04-15T17:08:00.821Z,7.53
2023-04-15T17:10:27.887Z,9.95
2023-04-15T17:12:56.917Z,13.20
2023-04-15T17:15:23.862Z,20.05
2023-04-15T17:17:51.199Z,15.95
2023-04-15T17:20:17.964Z,13.48
2023-04-15T17:22:45.968Z,16.33
2023-04-15T17:25:13.972Z,12.55
2023-04-15T17:27:41.844Z,9.40
2023-04-15T17:30:08.974Z,8.20
2023-04-15T17:32:36.815Z,16.95
2023-04-15T17:35:06.167Z,12.52
2023-04-15T17:37:36.524Z,14.45
2023-04-15T17:40:03.675Z,12.80
2023-04-15T17:42:31.773Z,10.40
2023-04-15T17:44:58.351Z,21.30
2023-04-15T17:47:25.817Z,14.02
2023-04-15T17:49:52.497Z,21.27
2023-04-15T17:52:19.794Z,16.10
2023-04-15T17:54:46.715Z,17.35
2023-04-15T17:57:14.094Z,15.43
2023-04-15T17:59:44.894Z,19.75
2023-04-15T18:02:12.203Z,26.88
2023-04-15T18:04:39.759Z,17.90
2023-04-15T18:07:07.418Z,16.27
2023-04-15T18:09:34.043Z,24.88
2023-04-15T18:12:02.606Z,19.38
2023-04-15T18:14:34.752Z,25.10
2023-04-15T18:17:03.190Z,14.60
2023-04-15T18:19:31.882Z,21.50
2023-04-15T18:22:00.691Z,18.85
2023-04-15T18:24:27.761Z,17.15
2023-04-15T18:26:55.081Z,17.73
2023-04-15T18:29:21.793Z,19.77
2023-04-15T18:31:49.160Z,11.68
2023-04-15T18:34:16.064Z,11.00
2023-04-15T18:36:43.147Z,13.20
2023-04-15T18:39:10.492Z,14.10
2023-04-15T18:41:37.536Z,18.58
2023-04-15T18:44:04.128Z,15.32
2023-04-15T18:46:31.101Z,21.65
2023-04-15T18:48:57.784Z,21.83
2023-04-15T18:51:25.148Z,17.73
2023-04-15T18:53:51.840Z,21.17
2023-04-15T18:56:19.132Z,13.07
2023-04-15T18:59:08.864Z,15.13
2023-04-15T19:01:33.161Z,13.77
2023-04-15T19:03:59.933Z,19.10
2023-04-15T19:06:27.053Z,25.38
2023-04-15T19:08:54.075Z,55.33
2023-04-15T19:11:21.931Z,29.13
2023-04-15T19:13:48.923Z,25.40
2023-04-15T19:16:16.048Z,28.77
2023-04-15T19:18:43.067Z,35.28
2023-04-15T19:21:14.563Z,16.70
2023-04-15T19:23:42.875Z,25.70
2023-04-15T19:26:11.400Z,22.40
2023-04-15T19:28:38.058Z,45.08
2023-04-15T19:31:05.670Z,30.85
2023-04-15T19:33:32.412Z,37.08
2023-04-15T19:36:06.048Z,43.47
2023-04-15T19:38:35.740Z,27.15
2023-04-15T19:41:02.708Z,32.22
2023-04-15T19:43:29.669Z,35.28
2023-04-15T19:45:56.718Z,28.27
2023-04-15T19:48:25.515Z,20.83
2023-04-15T19:50:52.514Z,27.02
2023-04-15T19:53:19.130Z,33.00
2023-04-15T19:55:47.557Z,26.65
2023-04-15T19:58:14.448Z,32.88
2023-04-15T20:00:41.478Z,30.77
2023-04-15T20:03:08.247Z,46.83
2023-04-15T20:05:35.666Z,50.83
2023-04-15T20:08:03.121Z,28.38
2023-04-15T20:10:31.552Z,32.58
2023-04-15T20:12:58.229Z,23.48
2023-04-15T20:15:25.560Z,34.80
2023-04-15T20:17:52.302Z,39.50
2023-04-15T20:20:19.830Z,30.83
2023-04-15T20:22:46.730Z,44.78
2023-04-15T20:25:13.821Z,40.55
2023-04-15T20:27:40.576Z,48.83
2023-04-15T20:30:08.388Z,57.20
2023-04-15T20:32:35.708Z,39.72
2023-04-15T20:35:04.185Z,31.63
2023-04-15T20:37:33.118Z,32.10
2023-04-15T20:40:01.435Z,28.83
2023-04-15T20:42:31.845Z,30.30
2023-04-15T20:44:58.862Z,28.35
2023-04-15T20:47:25.838Z,24.08
2023-04-15T20:49:56.677Z,26.92
2023-04-15T20:52:23.574Z,24.92
2023-04-15T20:54:51.461Z,17.98
2023-04-15T20:57:18.156Z,30.90
2023-04-15T20:59:45.203Z,24.17
2023-04-15T21:02:12.029Z,45.47
2023-04-15T21:04:39.359Z,23.90
2023-04-15T21:07:06.098Z,30.95
2023-04-15T21:09:33.113Z,27.40
2023-04-15T21:12:01.071Z,24.83
2023-04-15T21:14:29.181Z,38.25
2023-04-15T21:16:59.549Z,49.13
2023-04-15T21:19:26.374Z,37.78
2023-04-15T21:21:53.721Z,38.10
2023-04-15T21:24:20.470Z,34.33
2023-04-15T21:26:47.779Z,40.05
2023-04-15T21:29:14.673Z,38.83
2023-04-15T21:31:42.251Z,18.73
2023-04-15T21:34:09.495Z,21.27
2023-04-15T21:36:38.076Z,19.70
2023-04-15T21:39:05.663Z,21.90
2023-04-15T21:41:33.145Z,17.30
2023-04-15T21:43:59.753Z,18.63
2023-04-15T21:46:32.741Z,20.75
2023-04-15T21:51:27.537Z,14.23
2023-04-15T21:53:54.943Z,19.98
2023-04-15T21:56:23.922Z,25.00
2023-04-15T21:58:51.158Z,15.38
2023-04-15T22:01:18.502Z,35.28
2023-04-15T22:03:45.427Z,25.05
2023-04-15T22:06:13.911Z,29.48
2023-04-15T22:08:54.925Z,27.90
2023-04-15T22:11:26.995Z,31.27
2023-04-15T22:13:54.711Z,24.75
2023-04-15T22:16:22.343Z,34.50
2023-04-15T22:18:49.108Z,65.80
2023-04-15T22:21:16.653Z,33.42
2023-04-15T22:23:47.310Z,46.45
2023-04-15T22:26:14.703Z,46.97
2023-04-15T22:28:41.827Z,38.53
2023-04-15T22:31:09.349Z,35.33
2023-04-15T22:33:36.233Z,43.75
2023-04-15T22:36:03.700Z,36.85
2023-04-15T22:38:31.029Z,37.38
2023-04-15T22:40:58.119Z,38.97
2023-04-15T22:43:25.788Z,40.10
2023-04-15T22:45:55.188Z,34.50
2023-04-15T22:48:22.578Z,30.63
2023-04-15T22:50:50.044Z,36.67
2023-04-15T22:53:17.673Z,28.92
2023-04-15T22:55:46.939Z,30.13
2023-04-15T22:58:14.620Z,31.40
2023-04-15T23:00:41.950Z,35.00
2023-04-15T23:03:08.823Z,24.02
2023-04-15T23:05:37.298Z,25.95
2023-04-15T23:08:04.261Z,35.97
2023-04-15T23:10:31.730Z,21.58
2023-04-15T23:12:58.352Z,26.08
2023-04-15T23:15:25.959Z,33.80
2023-04-15T23:17:52.608Z,20.55
2023-04-15T23:20:19.915Z,36.78
2023-04-15T23:22:46.631Z,34.05
2023-04-15T23:25:13.888Z,34.28
2023-04-15T23:27:40.575Z,32.92
2023-04-15T23:30:08.409Z,31.30
2023-04-15T23:32:35.018Z,33.83
2023-04-15T23:35:02.308Z,19.52
2023-04-15T23:37:31.288Z,46.67
2023-04-15T23:39:58.645Z,28.42
2023-04-15T23:42:25.820Z,27.23
2023-04-15T23:44:53.178Z,18.63
2023-04-15T23:47:19.802Z,22.92
2023-04-15T23:49:47.177Z,25.20
2023-04-15T23:52:13.809Z,19.52
2023-04-15T23:54:41.015Z,21.98
2023-04-15T23:57:07.631Z,20.85
2023-04-15T23:59:34.866Z,18.95
